sensor_id;sensor_type;location;lat;lon;timestamp;pressure;altitude;pressure_sealevel;temperature;humidity
50710;BME280;37033;49.994;21.992;2023-02-25T00:01:20;97207.30;;;6.36;90.48
50710;BME280;37033;49.994;21.992;2023-02-25T00:04:11;97208.11;;;6.36;90.43
50710;BME280;37033;49.994;21.992;2023-02-25T00:07:01;97201.46;;;6.36;90.37
50710;BME280;37033;49.994;21.992;2023-02-25T00:09:51;97195.21;;;6.35;90.30
50710;BME280;37033;49.994;21.992;2023-02-25T00:12:42;97188.95;;;6.33;90.32
50710;BME280;37033;49.994;21.992;2023-02-25T00:15:33;97179.66;;;6.33;90.31
50710;BME280;37033;49.994;21.992;2023-02-25T00:18:22;97180.52;;;6.32;90.30
50710;BME280;37033;49.994;21.992;2023-02-25T00:21:13;97176.74;;;6.32;90.29
50710;BME280;37033;49.994;21.992;2023-02-25T00:24:04;97175.08;;;6.32;90.38
50710;BME280;37033;49.994;21.992;2023-02-25T00:26:54;97164.29;;;6.32;90.27
50710;BME280;37033;49.994;21.992;2023-02-25T00:29:43;97151.98;;;6.32;90.24
50710;BME280;37033;49.994;21.992;2023-02-25T00:32:33;97144.58;;;6.33;90.26
50710;BME280;37033;49.994;21.992;2023-02-25T00:35:22;97139.99;;;6.32;90.24
50710;BME280;37033;49.994;21.992;2023-02-25T00:38:11;97135.69;;;6.33;90.24
50710;BME280;37033;49.994;21.992;2023-02-25T00:41:05;97133.27;;;6.36;90.26
50710;BME280;37033;49.994;21.992;2023-02-25T00:43:59;97136.16;;;6.40;90.37
50710;BME280;37033;49.994;21.992;2023-02-25T00:46:49;97138.21;;;6.44;90.23
50710;BME280;37033;49.994;21.992;2023-02-25T00:49:38;97141.36;;;6.48;90.11
50710;BME280;37033;49.994;21.992;2023-02-25T00:52:29;97134.01;;;6.51;89.90
50710;BME280;37033;49.994;21.992;2023-02-25T00:55:18;97128.17;;;6.55;89.84
50710;BME280;37033;49.994;21.992;2023-02-25T00:58:08;97120.46;;;6.57;89.76
50710;BME280;37033;49.994;21.992;2023-02-25T01:00:59;97112.84;;;6.58;89.66
50710;BME280;37033;49.994;21.992;2023-02-25T01:03:50;97109.87;;;6.60;89.55
50710;BME280;37033;49.994;21.992;2023-02-25T01:06:41;97106.73;;;6.60;89.52
50710;BME280;37033;49.994;21.992;2023-02-25T01:09:31;97103.23;;;6.60;89.43
50710;BME280;37033;49.994;21.992;2023-02-25T01:12:20;97096.70;;;6.62;89.39
50710;BME280;37033;49.994;21.992;2023-02-25T01:15:12;97087.41;;;6.62;89.22
50710;BME280;37033;49.994;21.992;2023-02-25T01:18:01;97087.90;;;6.63;89.23
50710;BME280;37033;49.994;21.992;2023-02-25T01:20:51;97084.27;;;6.64;89.29
50710;BME280;37033;49.994;21.992;2023-02-25T01:23:41;97084.54;;;6.65;89.24
50710;BME280;37033;49.994;21.992;2023-02-25T01:26:35;97080.33;;;6.65;89.18
50710;BME280;37033;49.994;21.992;2023-02-25T01:29:26;97067.33;;;6.64;89.23
50710;BME280;37033;49.994;21.992;2023-02-25T01:32:17;97055.55;;;6.63;89.30
50710;BME280;37033;49.994;21.992;2023-02-25T01:35:08;97053.14;;;6.61;89.28
50710;BME280;37033;49.994;21.992;2023-02-25T01:37:57;97043.52;;;6.60;89.31
50710;BME280;37033;49.994;21.992;2023-02-25T01:40:47;97035.76;;;6.58;89.33
50710;BME280;37033;49.994;21.992;2023-02-25T01:43:36;97026.15;;;6.56;89.38
50710;BME280;37033;49.994;21.992;2023-02-25T01:46:26;97021.36;;;6.53;89.38
50710;BME280;37033;49.994;21.992;2023-02-25T01:49:19;97014.00;;;6.52;89.41
50710;BME280;37033;49.994;21.992;2023-02-25T01:52:14;97011.47;;;6.52;89.37
50710;BME280;37033;49.994;21.992;2023-02-25T01:55:09;97001.59;;;6.52;89.37
50710;BME280;37033;49.994;21.992;2023-02-25T01:58:00;96993.56;;;6.50;89.36
50710;BME280;37033;49.994;21.992;2023-02-25T02:00:50;96990.39;;;6.49;89.27
50710;BME280;37033;49.994;21.992;2023-02-25T02:03:42;96991.83;;;6.49;89.24
50710;BME280;37033;49.994;21.992;2023-02-25T02:06:35;96987.73;;;6.49;89.28
50710;BME280;37033;49.994;21.992;2023-02-25T02:09:27;96985.90;;;6.49;89.25
50710;BME280;37033;49.994;21.992;2023-02-25T02:12:17;96984.60;;;6.49;89.43
50710;BME280;37033;49.994;21.992;2023-02-25T02:15:10;96992.84;;;6.49;89.40
50710;BME280;37033;49.994;21.992;2023-02-25T02:18:02;96982.45;;;6.50;89.54
50710;BME280;37033;49.994;21.992;2023-02-25T02:21:07;96966.48;;;6.48;89.55
50710;BME280;37033;49.994;21.992;2023-02-25T02:24:27;96960.65;;;6.47;89.83
50710;BME280;37033;49.994;21.992;2023-02-25T02:27:25;96954.65;;;6.45;90.11
50710;BME280;37033;49.994;21.992;2023-02-25T02:30:39;96947.96;;;6.43;90.42
50710;BME280;37033;49.994;21.992;2023-02-25T02:33:46;96945.33;;;6.43;90.56
50710;BME280;37033;49.994;21.992;2023-02-25T02:36:47;96946.55;;;6.44;90.76
50710;BME280;37033;49.994;21.992;2023-02-25T02:39:48;96939.60;;;6.42;90.89
50710;BME280;37033;49.994;21.992;2023-02-25T02:42:44;96930.16;;;6.42;90.77
50710;BME280;37033;49.994;21.992;2023-02-25T02:45:46;96912.79;;;6.41;90.79
50710;BME280;37033;49.994;21.992;2023-02-25T02:48:40;96902.88;;;6.39;90.66
50710;BME280;37033;49.994;21.992;2023-02-25T02:51:37;96892.02;;;6.37;90.72
50710;BME280;37033;49.994;21.992;2023-02-25T02:54:36;96893.17;;;6.36;90.98
50710;BME280;37033;49.994;21.992;2023-02-25T02:57:29;96895.11;;;6.35;91.13
50710;BME280;37033;49.994;21.992;2023-02-25T03:00:23;96903.10;;;6.35;91.31
50710;BME280;37033;49.994;21.992;2023-02-25T03:03:18;96896.89;;;6.35;91.42
50710;BME280;37033;49.994;21.992;2023-02-25T03:06:12;96888.80;;;6.35;91.39
50710;BME280;37033;49.994;21.992;2023-02-25T03:09:06;96892.19;;;6.33;91.65
50710;BME280;37033;49.994;21.992;2023-02-25T03:11:58;96892.91;;;6.32;91.89
50710;BME280;37033;49.994;21.992;2023-02-25T03:14:48;96895.77;;;6.31;92.06
50710;BME280;37033;49.994;21.992;2023-02-25T03:17:43;96893.24;;;6.30;92.13
50710;BME280;37033;49.994;21.992;2023-02-25T03:20:38;96895.63;;;6.29;92.21
50710;BME280;37033;49.994;21.992;2023-02-25T03:23:31;96894.28;;;6.26;92.26
50710;BME280;37033;49.994;21.992;2023-02-25T03:26:25;96897.14;;;6.25;92.21
50710;BME280;37033;49.994;21.992;2023-02-25T03:29:18;96899.63;;;6.23;92.33
50710;BME280;37033;49.994;21.992;2023-02-25T03:32:10;96903.46;;;6.21;92.28
50710;BME280;37033;49.994;21.992;2023-02-25T03:35:03;96895.91;;;6.20;92.36
50710;BME280;37033;49.994;21.992;2023-02-25T03:38:01;96906.71;;;6.19;92.57
50710;BME280;37033;49.994;21.992;2023-02-25T03:40:54;96906.60;;;6.19;92.73
50710;BME280;37033;49.994;21.992;2023-02-25T03:43:47;96911.50;;;6.18;92.49
50710;BME280;37033;49.994;21.992;2023-02-25T03:46:40;96915.98;;;6.17;92.43
50710;BME280;37033;49.994;21.992;2023-02-25T03:49:33;96921.98;;;6.17;92.55
50710;BME280;37033;49.994;21.992;2023-02-25T03:52:25;96933.27;;;6.13;92.76
50710;BME280;37033;49.994;21.992;2023-02-25T03:55:16;96937.89;;;6.12;92.81
50710;BME280;37033;49.994;21.992;2023-02-25T03:58:07;96943.36;;;6.09;92.76
50710;BME280;37033;49.994;21.992;2023-02-25T04:00:58;96948.70;;;6.07;92.80
50710;BME280;37033;49.994;21.992;2023-02-25T04:03:50;96953.07;;;6.05;92.68
50710;BME280;37033;49.994;21.992;2023-02-25T04:06:40;96967.31;;;6.03;92.56
50710;BME280;37033;49.994;21.992;2023-02-25T04:09:30;96980.91;;;6.01;92.65
50710;BME280;37033;49.994;21.992;2023-02-25T04:12:19;97005.13;;;6.00;93.19
50710;BME280;37033;49.994;21.992;2023-02-25T04:15:11;97009.36;;;5.92;92.82
50710;BME280;37033;49.994;21.992;2023-02-25T04:18:01;97006.92;;;5.79;92.12
50710;BME280;37033;49.994;21.992;2023-02-25T04:20:52;97005.25;;;5.66;91.95
50710;BME280;37033;49.994;21.992;2023-02-25T04:23:42;97013.53;;;5.55;91.78
50710;BME280;37033;49.994;21.992;2023-02-25T04:26:32;97021.55;;;5.46;91.54
50710;BME280;37033;49.994;21.992;2023-02-25T04:29:22;97014.46;;;5.33;91.51
50710;BME280;37033;49.994;21.992;2023-02-25T04:32:12;97012.66;;;5.23;91.40
50710;BME280;37033;49.994;21.992;2023-02-25T04:35:02;97014.84;;;5.12;91.25
50710;BME280;37033;49.994;21.992;2023-02-25T04:37:52;97003.92;;;5.03;91.16
50710;BME280;37033;49.994;21.992;2023-02-25T04:40:42;97006.17;;;4.96;91.12
50710;BME280;37033;49.994;21.992;2023-02-25T04:43:31;96997.05;;;4.90;90.96
50710;BME280;37033;49.994;21.992;2023-02-25T04:46:21;96992.51;;;4.85;90.95
50710;BME280;37033;49.994;21.992;2023-02-25T04:49:10;96998.17;;;4.76;90.96
50710;BME280;37033;49.994;21.992;2023-02-25T04:52:00;96998.05;;;4.69;90.87
50710;BME280;37033;49.994;21.992;2023-02-25T04:54:50;96998.66;;;4.63;90.86
50710;BME280;37033;49.994;21.992;2023-02-25T04:57:39;96993.50;;;4.55;90.86
50710;BME280;37033;49.994;21.992;2023-02-25T05:00:30;96986.27;;;4.50;90.71
50710;BME280;37033;49.994;21.992;2023-02-25T05:03:19;96980.86;;;4.45;90.75
50710;BME280;37033;49.994;21.992;2023-02-25T05:06:09;96973.91;;;4.42;90.76
50710;BME280;37033;49.994;21.992;2023-02-25T05:08:59;96968.23;;;4.37;90.68
50710;BME280;37033;49.994;21.992;2023-02-25T05:11:49;96965.36;;;4.31;90.66
50710;BME280;37033;49.994;21.992;2023-02-25T05:14:39;96958.88;;;4.26;90.67
50710;BME280;37033;49.994;21.992;2023-02-25T05:17:28;96956.20;;;4.21;90.57
50710;BME280;37033;49.994;21.992;2023-02-25T05:20:18;96952.69;;;4.18;90.47
50710;BME280;37033;49.994;21.992;2023-02-25T05:23:08;96953.70;;;4.18;90.51
50710;BME280;37033;49.994;21.992;2023-02-25T05:25:57;96945.91;;;4.17;90.42
50710;BME280;37033;49.994;21.992;2023-02-25T05:28:48;96945.81;;;4.18;90.44
50710;BME280;37033;49.994;21.992;2023-02-25T05:31:39;96943.33;;;4.16;90.28
50710;BME280;37033;49.994;21.992;2023-02-25T05:34:28;96938.86;;;4.16;90.25
50710;BME280;37033;49.994;21.992;2023-02-25T05:37:18;96943.69;;;4.14;90.25
50710;BME280;37033;49.994;21.992;2023-02-25T05:40:11;96949.48;;;4.12;90.17
50710;BME280;37033;49.994;21.992;2023-02-25T05:43:02;96952.11;;;4.12;90.29
50710;BME280;37033;49.994;21.992;2023-02-25T05:45:54;96948.95;;;4.12;90.18
50710;BME280;37033;49.994;21.992;2023-02-25T05:48:45;96955.40;;;4.14;90.14
50710;BME280;37033;49.994;21.992;2023-02-25T05:51:35;96957.39;;;4.13;90.15
50710;BME280;37033;49.994;21.992;2023-02-25T05:54:25;96961.75;;;4.14;90.03
50710;BME280;37033;49.994;21.992;2023-02-25T05:57:14;96973.26;;;4.13;89.97
50710;BME280;37033;49.994;21.992;2023-02-25T06:00:08;96983.52;;;4.10;89.97
50710;BME280;37033;49.994;21.992;2023-02-25T06:03:01;96992.52;;;4.06;90.03
50710;BME280;37033;49.994;21.992;2023-02-25T06:05:51;97008.45;;;4.02;90.14
50710;BME280;37033;49.994;21.992;2023-02-25T06:08:42;97028.31;;;3.98;90.40
50710;BME280;37033;49.994;21.992;2023-02-25T06:11:33;97044.19;;;3.93;90.67
50710;BME280;37033;49.994;21.992;2023-02-25T06:14:23;97051.41;;;3.89;90.80
50710;BME280;37033;49.994;21.992;2023-02-25T06:17:12;97059.05;;;3.85;90.90
50710;BME280;37033;49.994;21.992;2023-02-25T06:20:02;97065.44;;;3.77;90.90
50710;BME280;37033;49.994;21.992;2023-02-25T06:22:55;97057.73;;;3.70;90.88
50710;BME280;37033;49.994;21.992;2023-02-25T06:25:45;97061.92;;;3.64;91.02
50710;BME280;37033;49.994;21.992;2023-02-25T06:28:35;97067.85;;;3.60;91.19
50710;BME280;37033;49.994;21.992;2023-02-25T06:31:24;97067.98;;;3.56;91.08
50710;BME280;37033;49.994;21.992;2023-02-25T06:34:15;97080.02;;;3.55;91.10
50710;BME280;37033;49.994;21.992;2023-02-25T06:37:06;97091.66;;;3.51;90.77
50710;BME280;37033;49.994;21.992;2023-02-25T06:39:55;97095.84;;;3.43;90.25
50710;BME280;37033;49.994;21.992;2023-02-25T06:42:45;97089.16;;;3.32;89.92
50710;BME280;37033;49.994;21.992;2023-02-25T06:45:36;97098.22;;;3.22;89.51
50710;BME280;37033;49.994;21.992;2023-02-25T06:48:26;97113.35;;;3.12;89.49
50710;BME280;37033;49.994;21.992;2023-02-25T06:51:15;97119.54;;;3.05;89.28
50710;BME280;37033;49.994;21.992;2023-02-25T06:54:06;97119.92;;;2.97;89.32
50710;BME280;37033;49.994;21.992;2023-02-25T06:56:56;97113.92;;;2.90;89.18
50710;BME280;37033;49.994;21.992;2023-02-25T06:59:45;97111.14;;;2.85;89.21
50710;BME280;37033;49.994;21.992;2023-02-25T07:02:36;97105.04;;;2.79;89.16
50710;BME280;37033;49.994;21.992;2023-02-25T07:05:26;97115.77;;;2.76;89.19
50710;BME280;37033;49.994;21.992;2023-02-25T07:08:16;97118.70;;;2.71;89.21
50710;BME280;37033;49.994;21.992;2023-02-25T07:11:20;97126.73;;;2.69;89.27
50710;BME280;37033;49.994;21.992;2023-02-25T07:14:14;97134.58;;;2.67;89.34
50710;BME280;37033;49.994;21.992;2023-02-25T07:17:04;97131.77;;;2.65;89.36
50710;BME280;37033;49.994;21.992;2023-02-25T07:19:54;97131.00;;;2.64;89.33
50710;BME280;37033;49.994;21.992;2023-02-25T07:22:44;97127.73;;;2.62;89.34
50710;BME280;37033;49.994;21.992;2023-02-25T07:25:33;97134.30;;;2.62;89.33
50710;BME280;37033;49.994;21.992;2023-02-25T07:28:23;97142.92;;;2.62;89.37
50710;BME280;37033;49.994;21.992;2023-02-25T07:31:14;97152.88;;;2.63;89.33
50710;BME280;37033;49.994;21.992;2023-02-25T07:34:04;97162.57;;;2.65;89.43
50710;BME280;37033;49.994;21.992;2023-02-25T07:36:54;97172.73;;;2.68;89.41
50710;BME280;37033;49.994;21.992;2023-02-25T07:39:43;97177.83;;;2.70;89.53
50710;BME280;37033;49.994;21.992;2023-02-25T07:42:34;97172.34;;;2.73;89.51
50710;BME280;37033;49.994;21.992;2023-02-25T07:45:23;97168.55;;;2.74;89.51
50710;BME280;37033;49.994;21.992;2023-02-25T07:48:13;97165.56;;;2.75;89.56
50710;BME280;37033;49.994;21.992;2023-02-25T07:51:06;97162.23;;;2.79;89.48
50710;BME280;37033;49.994;21.992;2023-02-25T07:53:57;97156.85;;;2.82;89.54
50710;BME280;37033;49.994;21.992;2023-02-25T07:56:48;97148.00;;;2.86;89.57
50710;BME280;37033;49.994;21.992;2023-02-25T07:59:39;97145.88;;;2.88;89.51
50710;BME280;37033;49.994;21.992;2023-02-25T08:02:28;97148.77;;;2.92;89.54
50710;BME280;37033;49.994;21.992;2023-02-25T08:05:17;97149.00;;;2.96;89.74
50710;BME280;37033;49.994;21.992;2023-02-25T08:08:09;97155.10;;;3.00;89.56
50710;BME280;37033;49.994;21.992;2023-02-25T08:10:58;97146.69;;;3.04;89.72
50710;BME280;37033;49.994;21.992;2023-02-25T08:13:48;97145.13;;;3.08;89.72
50710;BME280;37033;49.994;21.992;2023-02-25T08:16:37;97139.50;;;3.12;89.69
50710;BME280;37033;49.994;21.992;2023-02-25T08:19:27;97135.45;;;3.15;89.50
50710;BME280;37033;49.994;21.992;2023-02-25T08:22:16;97128.02;;;3.18;89.39
50710;BME280;37033;49.994;21.992;2023-02-25T08:25:09;97124.52;;;3.22;89.31
50710;BME280;37033;49.994;21.992;2023-02-25T08:27:58;97134.78;;;3.26;88.79
50710;BME280;37033;49.994;21.992;2023-02-25T08:30:49;97139.86;;;3.28;88.77
50710;BME280;37033;49.994;21.992;2023-02-25T08:33:39;97135.71;;;3.32;88.48
50710;BME280;37033;49.994;21.992;2023-02-25T08:36:31;97128.84;;;3.35;88.33
50710;BME280;37033;49.994;21.992;2023-02-25T08:39:21;97128.65;;;3.39;88.38
50710;BME280;37033;49.994;21.992;2023-02-25T08:42:11;97123.88;;;3.44;88.22
50710;BME280;37033;49.994;21.992;2023-02-25T08:45:04;97127.85;;;3.48;88.08
50710;BME280;37033;49.994;21.992;2023-02-25T08:47:53;97127.18;;;3.50;87.79
50710;BME280;37033;49.994;21.992;2023-02-25T08:50:43;97129.85;;;3.54;87.81
50710;BME280;37033;49.994;21.992;2023-02-25T08:53:32;97129.77;;;3.57;87.78
50710;BME280;37033;49.994;21.992;2023-02-25T08:56:22;97132.83;;;3.62;87.75
50710;BME280;37033;49.994;21.992;2023-02-25T08:59:13;97123.90;;;3.65;87.48
50710;BME280;37033;49.994;21.992;2023-02-25T09:02:03;97125.95;;;3.65;87.11
50710;BME280;37033;49.994;21.992;2023-02-25T09:04:55;97126.98;;;3.67;87.15
50710;BME280;37033;49.994;21.992;2023-02-25T09:07:44;97125.55;;;3.69;86.95
50710;BME280;37033;49.994;21.992;2023-02-25T09:10:33;97122.83;;;3.69;86.68
50710;BME280;37033;49.994;21.992;2023-02-25T09:13:23;97128.69;;;3.71;86.81
50710;BME280;37033;49.994;21.992;2023-02-25T09:16:12;97132.76;;;3.74;86.76
50710;BME280;37033;49.994;21.992;2023-02-25T09:19:04;97132.53;;;3.79;86.61
50710;BME280;37033;49.994;21.992;2023-02-25T09:21:54;97138.11;;;3.82;86.69
50710;BME280;37033;49.994;21.992;2023-02-25T09:24:43;97140.78;;;3.87;86.66
50710;BME280;37033;49.994;21.992;2023-02-25T09:27:33;97135.81;;;3.90;86.43
50710;BME280;37033;49.994;21.992;2023-02-25T09:30:24;97137.69;;;3.94;86.33
50710;BME280;37033;49.994;21.992;2023-02-25T09:33:14;97142.02;;;3.98;86.19
50710;BME280;37033;49.994;21.992;2023-02-25T09:36:09;97144.40;;;4.00;85.69
50710;BME280;37033;49.994;21.992;2023-02-25T09:38:58;97136.40;;;4.01;85.58
50710;BME280;37033;49.994;21.992;2023-02-25T09:41:50;97129.27;;;4.02;85.63
50710;BME280;37033;49.994;21.992;2023-02-25T09:44:44;97126.34;;;4.06;85.42
50710;BME280;37033;49.994;21.992;2023-02-25T09:47:39;97117.52;;;4.12;85.12
50710;BME280;37033;49.994;21.992;2023-02-25T09:50:33;97124.45;;;4.17;84.67
50710;BME280;37033;49.994;21.992;2023-02-25T09:53:28;97121.35;;;4.20;84.28
50710;BME280;37033;49.994;21.992;2023-02-25T09:56:23;97110.80;;;4.25;84.54
50710;BME280;37033;49.994;21.992;2023-02-25T09:59:16;97120.31;;;4.30;84.01
50710;BME280;37033;49.994;21.992;2023-02-25T10:02:23;97121.98;;;4.30;83.67
50710;BME280;37033;49.994;21.992;2023-02-25T10:05:23;97127.36;;;4.31;83.79
50710;BME280;37033;49.994;21.992;2023-02-25T10:08:20;97119.94;;;4.37;83.98
50710;BME280;37033;49.994;21.992;2023-02-25T10:11:16;97121.11;;;4.41;83.15
50710;BME280;37033;49.994;21.992;2023-02-25T10:14:17;97121.15;;;4.48;82.95
50710;BME280;37033;49.994;21.992;2023-02-25T10:17:16;97130.14;;;4.56;82.25
50710;BME280;37033;49.994;21.992;2023-02-25T10:23:34;97113.48;;;4.63;81.73
50710;BME280;37033;49.994;21.992;2023-02-25T10:26:30;97111.88;;;4.69;81.29
50710;BME280;37033;49.994;21.992;2023-02-25T10:29:25;97108.46;;;4.77;81.48
50710;BME280;37033;49.994;21.992;2023-02-25T10:32:23;97106.08;;;4.84;81.07
50710;BME280;37033;49.994;21.992;2023-02-25T10:35:17;97095.05;;;4.93;80.15
50710;BME280;37033;49.994;21.992;2023-02-25T10:38:09;97089.29;;;5.05;80.10
50710;BME280;37033;49.994;21.992;2023-02-25T10:41:00;97091.32;;;5.11;80.00
50710;BME280;37033;49.994;21.992;2023-02-25T10:43:51;97090.42;;;5.15;80.12
50710;BME280;37033;49.994;21.992;2023-02-25T10:46:47;97096.62;;;5.16;79.87
50710;BME280;37033;49.994;21.992;2023-02-25T10:49:38;97105.52;;;5.18;79.39
50710;BME280;37033;49.994;21.992;2023-02-25T10:52:28;97105.34;;;5.18;79.53
50710;BME280;37033;49.994;21.992;2023-02-25T10:55:38;97134.31;;;5.15;79.06
50710;BME280;37033;49.994;21.992;2023-02-25T10:58:33;97166.33;;;4.83;77.31
50710;BME280;37033;49.994;21.992;2023-02-25T11:01:23;97156.98;;;4.18;77.64
50710;BME280;37033;49.994;21.992;2023-02-25T11:04:17;97163.46;;;3.62;78.90
50710;BME280;37033;49.994;21.992;2023-02-25T11:07:33;97157.98;;;3.14;80.15
50710;BME280;37033;49.994;21.992;2023-02-25T11:10:23;97154.23;;;2.80;81.90
50710;BME280;37033;49.994;21.992;2023-02-25T11:13:28;97147.91;;;2.64;83.18
50710;BME280;37033;49.994;21.992;2023-02-25T11:16:18;97151.60;;;2.53;84.05
50710;BME280;37033;49.994;21.992;2023-02-25T11:19:14;97152.05;;;2.45;84.74
50710;BME280;37033;49.994;21.992;2023-02-25T11:22:10;97153.35;;;2.39;85.23
50710;BME280;37033;49.994;21.992;2023-02-25T11:25:14;97149.98;;;2.35;85.51
50710;BME280;37033;49.994;21.992;2023-02-25T11:28:07;97147.10;;;2.36;85.67
50710;BME280;37033;49.994;21.992;2023-02-25T11:31:14;97146.65;;;2.38;85.71
50710;BME280;37033;49.994;21.992;2023-02-25T11:34:11;97143.06;;;2.43;85.86
50710;BME280;37033;49.994;21.992;2023-02-25T11:37:25;97146.11;;;2.48;85.84
50710;BME280;37033;49.994;21.992;2023-02-25T11:40:24;97149.69;;;2.58;85.82
50710;BME280;37033;49.994;21.992;2023-02-25T11:43:18;97147.27;;;2.68;85.89
50710;BME280;37033;49.994;21.992;2023-02-25T11:46:12;97145.52;;;2.80;85.77
50710;BME280;37033;49.994;21.992;2023-02-25T11:49:13;97148.36;;;2.92;85.78
50710;BME280;37033;49.994;21.992;2023-02-25T11:52:15;97148.43;;;3.05;85.76
50710;BME280;37033;49.994;21.992;2023-02-25T11:55:19;97145.90;;;3.22;86.04
50710;BME280;37033;49.994;21.992;2023-02-25T11:58:18;97143.67;;;3.42;85.95
50710;BME280;37033;49.994;21.992;2023-02-25T12:01:24;97140.98;;;3.64;86.12
50710;BME280;37033;49.994;21.992;2023-02-25T12:04:41;97143.42;;;3.88;86.17
50710;BME280;37033;49.994;21.992;2023-02-25T12:07:49;97147.67;;;4.04;85.76
50710;BME280;37033;49.994;21.992;2023-02-25T12:11:09;97175.15;;;4.05;84.56
50710;BME280;37033;49.994;21.992;2023-02-25T12:18:04;97156.20;;;3.71;84.51
50710;BME280;37033;49.994;21.992;2023-02-25T12:24:28;97151.92;;;3.78;85.15
50710;BME280;37033;49.994;21.992;2023-02-25T12:31:13;97150.02;;;3.87;85.33
50710;BME280;37033;49.994;21.992;2023-02-25T12:37:33;97152.23;;;4.16;85.87
50710;BME280;37033;49.994;21.992;2023-02-25T12:40:40;97145.94;;;4.28;85.32
50710;BME280;37033;49.994;21.992;2023-02-25T12:43:38;97141.20;;;4.39;85.16
50710;BME280;37033;49.994;21.992;2023-02-25T12:46:45;97146.30;;;4.51;84.81
50710;BME280;37033;49.994;21.992;2023-02-25T12:53:16;97144.94;;;4.72;84.43
50710;BME280;37033;49.994;21.992;2023-02-25T12:56:23;97137.77;;;4.86;83.99
50710;BME280;37033;49.994;21.992;2023-02-25T12:59:41;97135.23;;;4.97;83.70
50710;BME280;37033;49.994;21.992;2023-02-25T13:02:56;97130.77;;;5.08;83.16
50710;BME280;37033;49.994;21.992;2023-02-25T13:09:30;97132.71;;;5.41;83.04
50710;BME280;37033;49.994;21.992;2023-02-25T13:12:37;97132.64;;;5.57;82.79
50710;BME280;37033;49.994;21.992;2023-02-25T13:15:39;97131.48;;;5.65;81.69
50710;BME280;37033;49.994;21.992;2023-02-25T13:18:41;97122.63;;;5.77;81.74
50710;BME280;37033;49.994;21.992;2023-02-25T13:21:49;97115.88;;;5.92;81.61
50710;BME280;37033;49.994;21.992;2023-02-25T13:24:48;97114.34;;;6.01;81.23
50710;BME280;37033;49.994;21.992;2023-02-25T13:28:02;97113.39;;;6.08;80.34
50710;BME280;37033;49.994;21.992;2023-02-25T13:30:56;97116.84;;;6.12;80.20
50710;BME280;37033;49.994;21.992;2023-02-25T13:34:04;97118.08;;;6.22;80.59
50710;BME280;37033;49.994;21.992;2023-02-25T13:37:20;97117.34;;;6.31;79.92
50710;BME280;37033;49.994;21.992;2023-02-25T13:40:39;97132.06;;;6.25;79.27
50710;BME280;37033;49.994;21.992;2023-02-25T13:43:52;97157.25;;;6.14;79.32
50710;BME280;37033;49.994;21.992;2023-02-25T13:46:53;97165.89;;;5.83;76.24
50710;BME280;37033;49.994;21.992;2023-02-25T13:50:04;97161.83;;;5.21;75.59
50710;BME280;37033;49.994;21.992;2023-02-25T13:53:15;97176.52;;;4.76;77.35
50710;BME280;37033;49.994;21.992;2023-02-25T13:56:17;97192.61;;;4.50;78.47
50710;BME280;37033;49.994;21.992;2023-02-25T13:59:24;97202.46;;;4.32;79.24
50710;BME280;37033;49.994;21.992;2023-02-25T14:02:39;97196.05;;;4.13;79.96
50710;BME280;37033;49.994;21.992;2023-02-25T14:05:52;97192.41;;;3.99;80.55
50710;BME280;37033;49.994;21.992;2023-02-25T14:09:11;97197.61;;;3.94;81.07
50710;BME280;37033;49.994;21.992;2023-02-25T14:12:15;97195.81;;;3.96;81.59
50710;BME280;37033;49.994;21.992;2023-02-25T14:15:33;97203.09;;;3.98;81.66
50710;BME280;37033;49.994;21.992;2023-02-25T14:18:49;97216.16;;;3.93;81.42
50710;BME280;37033;49.994;21.992;2023-02-25T14:21:55;97220.90;;;3.90;81.20
50710;BME280;37033;49.994;21.992;2023-02-25T14:24:51;97218.23;;;3.86;80.79
50710;BME280;37033;49.994;21.992;2023-02-25T14:27:50;97218.81;;;3.90;80.31
50710;BME280;37033;49.994;21.992;2023-02-25T14:30:52;97224.14;;;3.96;79.64
50710;BME280;37033;49.994;21.992;2023-02-25T14:34:05;97229.77;;;4.03;79.83
50710;BME280;37033;49.994;21.992;2023-02-25T14:37:09;97237.64;;;4.11;79.80
50710;BME280;37033;49.994;21.992;2023-02-25T14:40:16;97241.02;;;4.19;79.79
50710;BME280;37033;49.994;21.992;2023-02-25T14:43:24;97244.56;;;4.25;79.63
50710;BME280;37033;49.994;21.992;2023-02-25T14:46:24;97245.63;;;4.29;79.47
50710;BME280;37033;49.994;21.992;2023-02-25T14:49:22;97243.88;;;4.27;79.00
50710;BME280;37033;49.994;21.992;2023-02-25T14:56:14;97246.44;;;4.20;79.09
50710;BME280;37033;49.994;21.992;2023-02-25T14:59:30;97250.30;;;4.18;79.16
50710;BME280;37033;49.994;21.992;2023-02-25T15:02:34;97254.48;;;4.18;78.57
50710;BME280;37033;49.994;21.992;2023-02-25T15:05:50;97250.84;;;4.18;78.25
50710;BME280;37033;49.994;21.992;2023-02-25T15:08:51;97255.50;;;4.17;78.60
50710;BME280;37033;49.994;21.992;2023-02-25T15:11:54;97265.63;;;4.18;77.85
50710;BME280;37033;49.994;21.992;2023-02-25T15:15:03;97271.58;;;4.16;77.64
50710;BME280;37033;49.994;21.992;2023-02-25T15:18:24;97282.52;;;4.14;77.40
50710;BME280;37033;49.994;21.992;2023-02-25T15:21:37;97291.81;;;4.07;77.20
50710;BME280;37033;49.994;21.992;2023-02-25T15:24:42;97294.08;;;4.00;77.53
50710;BME280;37033;49.994;21.992;2023-02-25T15:27:49;97298.84;;;3.94;77.75
50710;BME280;37033;49.994;21.992;2023-02-25T15:37:32;97334.72;;;3.56;78.29
50710;BME280;37033;49.994;21.992;2023-02-25T15:40:48;97337.52;;;3.35;78.69
50710;BME280;37033;49.994;21.992;2023-02-25T15:43:45;97340.52;;;3.16;79.42
50710;BME280;37033;49.994;21.992;2023-02-25T15:46:47;97348.45;;;3.06;79.88
50710;BME280;37033;49.994;21.992;2023-02-25T15:49:37;97346.98;;;2.98;80.25
50710;BME280;37033;49.994;21.992;2023-02-25T15:52:51;97347.91;;;2.93;80.48
50710;BME280;37033;49.994;21.992;2023-02-25T15:55:43;97350.13;;;2.90;80.75
50710;BME280;37033;49.994;21.992;2023-02-25T15:58:52;97358.01;;;2.86;81.00
50710;BME280;37033;49.994;21.992;2023-02-25T16:01:43;97359.42;;;2.81;81.04
50710;BME280;37033;49.994;21.992;2023-02-25T16:04:48;97355.25;;;2.80;81.05